createdAt,value
2022-09-15T00:00:02.371Z,4.03
2022-09-15T00:04:59.015Z,4.30
2022-09-15T00:09:51.497Z,4.10
2022-09-15T00:14:44.075Z,3.83
2022-09-15T00:19:36.697Z,4.53
2022-09-15T00:24:30.541Z,4.13
2022-09-15T00:29:23.039Z,4.10
2022-09-15T00:34:16.213Z,4.17
2022-09-15T00:39:08.730Z,2.80
2022-09-15T00:44:03.186Z,2.80
2022-09-15T00:48:58.582Z,2.90
2022-09-15T00:53:51.764Z,2.80
2022-09-15T00:58:46.167Z,2.77
2022-09-15T01:03:40.139Z,2.83
2022-09-15T01:08:34.949Z,2.73
2022-09-15T01:13:29.612Z,2.60
2022-09-15T01:18:25.212Z,2.77
2022-09-15T01:23:35.086Z,2.90
2022-09-15T01:28:33.660Z,3.00
2022-09-15T01:33:32.194Z,3.30
2022-09-15T01:38:29.084Z,3.27
2022-09-15T01:43:23.353Z,3.27
2022-09-15T01:48:17.507Z,3.20
2022-09-15T01:53:13.484Z,3.17
2022-09-15T01:58:06.081Z,3.50
2022-09-15T02:03:01.120Z,3.37
2022-09-15T02:07:57.242Z,3.23
2022-09-15T02:12:54.601Z,2.93
2022-09-15T02:17:48.272Z,2.80
2022-09-15T02:22:42.217Z,2.60
2022-09-15T02:27:37.456Z,2.90
2022-09-15T02:32:31.696Z,2.80
2022-09-15T02:37:25.054Z,3.30
2022-09-15T02:42:24.493Z,3.03
2022-09-15T02:47:16.955Z,3.70
2022-09-15T02:52:10.826Z,3.27
2022-09-15T02:57:03.376Z,3.63
2022-09-15T03:01:56.277Z,3.43
2022-09-15T03:06:48.796Z,2.87
2022-09-15T03:11:42.666Z,2.73
2022-09-15T03:16:36.113Z,2.70
2022-09-15T03:21:29.976Z,2.60
2022-09-15T03:26:22.537Z,2.10
2022-09-15T03:31:16.557Z,2.20
2022-09-15T03:36:09.544Z,2.40
2022-09-15T03:41:03.045Z,2.20
2022-09-15T03:45:56.154Z,2.50
2022-09-15T03:50:50.109Z,2.17
2022-09-15T03:55:42.739Z,2.10
2022-09-15T04:00:35.261Z,2.10
2022-09-15T04:05:27.876Z,2.40
2022-09-15T04:10:24.386Z,2.23
2022-09-15T04:15:16.968Z,2.00
2022-09-15T04:20:10.368Z,2.60
2022-09-15T04:25:02.917Z,2.70
2022-09-15T04:29:56.801Z,2.10
2022-09-15T04:34:49.283Z,2.60
2022-09-15T04:39:42.423Z,2.47
2022-09-15T04:44:34.968Z,2.70
2022-09-15T04:49:29.618Z,2.80
2022-09-15T04:54:22.465Z,2.80
2022-09-15T04:59:15.738Z,2.90
2022-09-15T05:04:08.476Z,2.50
2022-09-15T05:09:07.635Z,2.63
2022-09-15T05:14:02.529Z,2.53
2022-09-15T05:18:55.759Z,2.67
2022-09-15T05:23:48.341Z,2.40
2022-09-15T05:28:42.489Z,2.67
2022-09-15T05:33:35.525Z,2.43
2022-09-15T05:38:29.885Z,2.80
2022-09-15T05:43:23.160Z,2.80
2022-09-15T05:48:16.955Z,2.87
2022-09-15T05:53:09.393Z,2.70
2022-09-15T05:58:01.894Z,2.43
2022-09-15T06:02:54.519Z,2.80
2022-09-15T06:07:48.376Z,2.73
2022-09-15T06:12:40.854Z,2.37
2022-09-15T06:17:34.092Z,2.90
2022-09-15T06:22:26.798Z,2.80
2022-09-15T06:27:21.095Z,2.90
2022-09-15T06:32:13.592Z,2.87
2022-09-15T06:37:15.755Z,3.20
2022-09-15T06:42:09.574Z,2.60
2022-09-15T06:47:10.486Z,3.20
2022-09-15T06:52:03.262Z,2.83
2022-09-15T06:56:55.795Z,3.70
2022-09-15T07:01:48.299Z,3.70
2022-09-15T07:06:42.131Z,3.63
2022-09-15T07:11:34.819Z,3.67
2022-09-15T07:16:27.638Z,3.30
2022-09-15T07:21:21.502Z,3.17
2022-09-15T07:26:16.049Z,3.60
2022-09-15T07:31:09.244Z,3.57
2022-09-15T07:36:02.552Z,2.87
2022-09-15T07:40:55.204Z,2.83
2022-09-15T07:45:49.036Z,2.80
2022-09-15T07:50:41.583Z,2.83
2022-09-15T07:55:34.058Z,2.50
2022-09-15T08:00:26.631Z,2.47
2022-09-15T08:05:20.553Z,2.00
2022-09-15T08:10:13.025Z,2.10
2022-09-15T08:15:06.323Z,2.00
2022-09-15T08:19:58.792Z,2.13
2022-09-15T08:24:52.657Z,1.87
2022-09-15T08:29:45.148Z,2.00
2022-09-15T08:34:37.625Z,1.70
2022-09-15T08:39:30.101Z,1.67
2022-09-15T08:44:33.213Z,1.70
2022-09-15T08:49:49.955Z,1.80
2022-09-15T08:54:41.305Z,1.70
2022-09-15T08:59:36.599Z,2.13
2022-09-15T09:04:44.125Z,2.20
2022-09-15T09:09:42.698Z,2.40
2022-09-15T09:14:43.037Z,2.40
2022-09-15T09:19:52.738Z,2.40
2022-09-15T09:24:46.345Z,2.77
2022-09-15T09:29:41.259Z,2.63
2022-09-15T09:34:36.357Z,3.20
2022-09-15T09:39:29.153Z,3.83
2022-09-15T09:44:31.555Z,3.47
2022-09-15T09:49:26.033Z,3.20
2022-09-15T09:54:20.565Z,3.60
2022-09-15T09:59:35.980Z,3.90
2022-09-15T10:04:29.822Z,4.17
2022-09-15T10:09:22.329Z,4.20
2022-09-15T10:14:19.875Z,4.57
2022-09-15T10:19:13.166Z,1.53
2022-09-15T10:24:20.621Z,1.63
2022-09-15T10:29:16.075Z,1.30
2022-09-15T10:34:28.318Z,1.50
2022-09-15T10:39:26.393Z,1.40
2022-09-15T10:44:27.280Z,2.10
2022-09-15T10:49:25.453Z,3.30
2022-09-15T10:54:34.172Z,5.30
2022-09-15T10:59:44.332Z,6.93
2022-09-15T11:04:45.525Z,7.67
2022-09-15T11:09:41.604Z,6.37
2022-09-15T11:14:39.462Z,7.23
2022-09-15T11:19:39.177Z,5.60
2022-09-15T11:24:39.227Z,6.20
2022-09-15T11:29:34.694Z,4.90
2022-09-15T11:34:29.720Z,5.10
2022-09-15T11:39:24.047Z,4.50
2022-09-15T11:44:20.317Z,4.50
2022-09-15T11:49:16.163Z,3.87
2022-09-15T11:54:11.878Z,3.50
2022-09-15T11:59:08.812Z,3.67
2022-09-15T12:04:05.413Z,4.20
2022-09-15T12:09:00.779Z,4.70
2022-09-15T12:13:54.447Z,4.80
2022-09-15T12:18:49.430Z,5.53
2022-09-15T12:23:45.956Z,6.23
2022-09-15T12:28:40.090Z,5.60
2022-09-15T12:33:44.533Z,5.53
2022-09-15T12:38:36.997Z,5.80
2022-09-15T12:43:31.708Z,7.30
2022-09-15T12:48:26.031Z,5.13
2022-09-15T12:53:21.628Z,5.07
2022-09-15T12:58:18.324Z,4.70
2022-09-15T13:03:25.769Z,5.23
2022-09-15T13:08:33.409Z,5.50
2022-09-15T13:13:32.661Z,4.80
2022-09-15T13:18:26.317Z,4.20
2022-09-15T13:23:23.386Z,3.90
2022-09-15T13:33:17.941Z,3.33
2022-09-15T13:38:32.143Z,4.30
2022-09-15T13:43:41.020Z,4.10
2022-09-15T13:48:41.578Z,3.80
2022-09-15T13:53:42.672Z,3.10
2022-09-15T14:03:51.458Z,3.00
2022-09-15T14:08:45.286Z,2.40
2022-09-15T14:13:42.072Z,3.10
2022-09-15T14:18:41.989Z,2.50
2022-09-15T14:23:44.701Z,3.00
2022-09-15T14:28:38.652Z,2.77
2022-09-15T14:33:37.608Z,3.20
2022-09-15T14:38:30.750Z,2.93
2022-09-15T14:43:26.684Z,2.87
2022-09-15T14:48:20.257Z,2.90
2022-09-15T14:53:14.458Z,2.73
2022-09-15T14:58:09.632Z,3.00
2022-09-15T15:03:12.530Z,3.23
2022-09-15T15:08:08.996Z,2.80
2022-09-15T15:13:03.191Z,2.93
2022-09-15T15:17:56.071Z,2.73
2022-09-15T15:23:09.915Z,2.53
2022-09-15T15:28:02.543Z,2.90
2022-09-15T15:32:55.081Z,2.93
2022-09-15T15:37:48.147Z,3.20
2022-09-15T15:42:56.474Z,3.00
2022-09-15T15:47:51.974Z,3.00
2022-09-15T15:52:44.985Z,3.33
2022-09-15T15:57:38.935Z,3.10
2022-09-15T16:02:32.743Z,3.20
2022-09-15T16:07:29.940Z,3.50
2022-09-15T16:12:25.094Z,3.13
2022-09-15T16:17:18.174Z,3.67
2022-09-15T16:22:16.366Z,3.50
2022-09-15T16:27:13.874Z,3.70
2022-09-15T16:32:07.000Z,3.30
2022-09-15T16:36:59.619Z,3.50
2022-09-15T16:41:53.508Z,3.60
2022-09-15T16:46:46.364Z,3.53
2022-09-15T16:51:38.907Z,3.60
2022-09-15T16:56:31.492Z,3.77
2022-09-15T17:01:26.037Z,3.93
2022-09-15T17:06:18.969Z,4.23
2022-09-15T17:11:16.203Z,4.03
2022-09-15T17:16:09.310Z,4.90
2022-09-15T17:21:03.162Z,5.10
2022-09-15T17:25:58.387Z,4.57
2022-09-15T17:30:51.483Z,4.20
2022-09-15T17:35:44.118Z,5.30
2022-09-15T17:40:38.211Z,7.40
2022-09-15T17:45:32.371Z,7.80
2022-09-15T17:50:25.573Z,7.87
2022-09-15T17:55:19.722Z,6.60
2022-09-15T18:00:14.126Z,6.17
2022-09-15T18:05:07.209Z,6.47
2022-09-15T18:09:59.859Z,9.97
2022-09-15T18:14:52.346Z,11.20
2022-09-15T18:19:46.302Z,10.67
2022-09-15T18:24:38.816Z,7.90
2022-09-15T18:29:31.327Z,10.50
2022-09-15T18:34:24.547Z,10.73
2022-09-15T18:39:18.374Z,9.83
2022-09-15T18:44:10.845Z,11.13
2022-09-15T18:49:04.620Z,12.90
2022-09-15T18:53:57.360Z,16.93
2022-09-15T18:58:52.788Z,21.67
2022-09-15T19:03:45.453Z,21.67
2022-09-15T19:08:38.001Z,16.70
2022-09-15T19:13:30.708Z,16.37
2022-09-15T19:18:24.535Z,13.90
2022-09-15T19:23:17.064Z,17.13
2022-09-15T19:28:09.572Z,17.70
2022-09-15T19:33:02.449Z,16.67
2022-09-15T19:37:56.260Z,18.57
2022-09-15T19:42:50.567Z,19.97
2022-09-15T19:47:43.067Z,19.17
2022-09-15T19:52:36.611Z,10.70
2022-09-15T19:57:30.456Z,8.43
2022-09-15T20:02:22.996Z,9.50
2022-09-15T20:07:15.502Z,13.73
2022-09-15T20:12:08.229Z,17.90
2022-09-15T20:17:02.303Z,22.40
2022-09-15T20:21:54.864Z,21.27
2022-09-15T20:26:47.414Z,19.80
2022-09-15T20:31:40.263Z,15.70
2022-09-15T20:36:35.415Z,16.30
2022-09-15T20:41:28.345Z,17.80
2022-09-15T20:46:21.560Z,15.30
2022-09-15T20:51:15.350Z,15.70
2022-09-15T20:56:09.351Z,24.60
2022-09-15T21:01:06.962Z,29.17
2022-09-15T21:06:00.020Z,25.70
2022-09-15T21:10:54.149Z,27.73
2022-09-15T21:15:53.739Z,30.67
2022-09-15T21:20:47.781Z,31.50
2022-09-15T21:25:40.299Z,30.90
2022-09-15T21:30:32.785Z,31.87
2022-09-15T21:35:26.651Z,34.80
2022-09-15T21:40:19.654Z,40.70
2022-09-15T21:45:12.284Z,35.17
2022-09-15T21:50:05.671Z,36.77
2022-09-15T21:55:00.387Z,37.87
2022-09-15T21:59:52.824Z,33.73
2022-09-15T22:04:45.520Z,30.40
2022-09-15T22:09:39.424Z,23.40
2022-09-15T22:14:33.382Z,19.90
2022-09-15T22:19:26.652Z,20.60
2022-09-15T22:24:19.485Z,18.77
2022-09-15T22:29:12.024Z,16.40
2022-09-15T22:34:06.089Z,16.27
2022-09-15T22:39:04.026Z,15.70
2022-09-15T22:43:56.804Z,17.40
2022-09-15T22:48:49.282Z,23.50
2022-09-15T22:53:43.167Z,25.33
2022-09-15T22:58:36.144Z,24.17
2022-09-15T23:03:28.615Z,21.80
2022-09-15T23:08:21.073Z,25.87
2022-09-15T23:13:14.899Z,24.80
2022-09-15T23:18:07.359Z,27.50
2022-09-15T23:23:00.087Z,23.80
2022-09-15T23:27:52.744Z,23.40
2022-09-15T23:32:46.546Z,25.57
2022-09-15T23:37:38.985Z,20.90
2022-09-15T23:42:31.441Z,19.30
2022-09-15T23:47:23.999Z,21.67
2022-09-15T23:52:17.821Z,23.87
2022-09-15T23:57:11.649Z,26.10
